createdAt,value
2018-11-10T00:01:18.072Z,1008.82
2018-11-10T00:02:18.085Z,1008.85
2018-11-10T00:03:18.098Z,1008.83
2018-11-10T00:04:18.239Z,1008.88
2018-11-10T00:05:18.133Z,1008.8
2018-11-10T00:06:18.157Z,1008.81
2018-11-10T00:07:18.171Z,1008.79
2018-11-10T00:08:18.228Z,1008.83
2018-11-10T00:09:18.204Z,1008.84
2018-11-10T00:10:18.226Z,1008.8
2018-11-10T00:11:18.241Z,1008.83
2018-11-10T00:12:18.357Z,1008.83
2018-11-10T00:13:18.274Z,1008.81
2018-11-10T00:14:18.296Z,1008.75
2018-11-10T00:15:18.319Z,1008.79
2018-11-10T00:17:18.350Z,1008.74
2018-11-10T00:18:18.361Z,1008.78
2018-11-10T00:19:18.383Z,1008.77
2018-11-10T00:20:18.396Z,1008.76
2018-11-10T00:21:18.419Z,1008.71
2018-11-10T00:22:18.432Z,1008.7
2018-11-10T00:23:18.454Z,1008.63
2018-11-10T00:24:18.467Z,1008.61
2018-11-10T00:25:18.488Z,1008.6
2018-11-10T00:26:18.506Z,1008.59
2018-11-10T00:27:18.518Z,1008.57
2018-11-10T00:28:18.541Z,1008.55
2018-11-10T00:29:18.554Z,1008.6
2018-11-10T00:30:18.577Z,1008.61
2018-11-10T00:31:18.589Z,1008.63
2018-11-10T00:33:18.628Z,1008.67
2018-11-10T00:34:18.641Z,1008.64
2018-11-10T00:35:18.663Z,1008.7
2018-11-10T00:36:18.676Z,1008.68
2018-11-10T00:37:18.700Z,1008.61
2018-11-10T00:38:18.712Z,1008.6
2018-11-10T00:39:18.733Z,1008.6
2018-11-10T00:40:18.750Z,1008.55
2018-11-10T00:41:18.767Z,1008.56
2018-11-10T00:42:18.787Z,1008.52
2018-11-10T00:43:18.799Z,1008.49
2018-11-10T00:44:18.820Z,1008.52
2018-11-10T00:45:18.832Z,1008.49
2018-11-10T00:46:18.856Z,1008.53
2018-11-10T00:48:18.891Z,1008.53
2018-11-10T00:49:18.908Z,1008.55
2018-11-10T00:50:18.930Z,1008.56
2018-11-10T00:51:18.937Z,1008.56
2018-11-10T00:52:18.960Z,1008.53
2018-11-10T00:53:18.973Z,1008.58
2018-11-10T00:54:18.995Z,1008.53
2018-11-10T00:55:19.017Z,1008.56
2018-11-10T00:56:19.029Z,1008.49
2018-11-10T00:57:19.047Z,1008.5
2018-11-10T00:58:19.059Z,1008.45
2018-11-10T00:59:19.082Z,1008.46
2018-11-10T01:00:19.094Z,1008.42
2018-11-10T01:01:19.111Z,1008.44
2018-11-10T01:02:19.139Z,1008.44
2018-11-10T01:03:19.154Z,1008.43
2018-11-10T01:04:19.168Z,1008.41
2018-11-10T01:05:19.191Z,1008.44
2018-11-10T01:06:19.203Z,1008.43
2018-11-10T01:07:19.216Z,1008.42
2018-11-10T01:08:19.242Z,1008.4
2018-11-10T01:09:19.256Z,1008.38
2018-11-10T01:10:19.273Z,1008.37
2018-11-10T01:11:19.285Z,1008.34
2018-11-10T01:12:19.307Z,1008.36
2018-11-10T01:13:19.320Z,1008.33
2018-11-10T01:14:19.342Z,1008.29
2018-11-10T01:15:19.354Z,1008.31
2018-11-10T01:16:19.376Z,1008.24
2018-11-10T01:17:19.389Z,1008.23
2018-11-10T01:18:19.407Z,1008.25
2018-11-10T01:20:19.440Z,1008.27
2018-11-10T01:21:19.463Z,1008.28
2018-11-10T01:22:19.475Z,1008.31
2018-11-10T01:23:19.497Z,1008.32
2018-11-10T01:24:19.512Z,1008.35
2018-11-10T01:25:19.533Z,1008.33
2018-11-10T01:26:19.545Z,1008.37
2018-11-10T01:27:19.567Z,1008.36
2018-11-10T01:28:19.580Z,1008.44
2018-11-10T01:29:19.608Z,1008.4
2018-11-10T01:30:19.619Z,1008.42
2018-11-10T01:31:19.636Z,1008.42
2018-11-10T01:32:19.648Z,1008.4
2018-11-10T01:33:19.670Z,1008.4
2018-11-10T01:34:19.684Z,1008.35
2018-11-10T01:36:19.723Z,1008.35
2018-11-10T01:37:19.740Z,1008.32
2018-11-10T01:38:19.760Z,1008.29
2018-11-10T01:39:19.776Z,1008.28
2018-11-10T01:40:19.792Z,1008.27
2018-11-10T01:41:19.805Z,1008.25
2018-11-10T01:42:19.827Z,1008.26
2018-11-10T01:43:19.840Z,1008.23
2018-11-10T01:44:19.962Z,1008.23
2018-11-10T01:45:19.874Z,1008.23
2018-11-10T01:46:19.896Z,1008.18
2018-11-10T01:47:19.912Z,1008.17
2018-11-10T01:48:19.931Z,1008.15
2018-11-10T01:49:19.949Z,1008.16
2018-11-10T01:50:19.961Z,1008.13
2018-11-10T01:52:19.994Z,1008.09
2018-11-10T01:53:20.018Z,1008.05
2018-11-10T01:54:20.032Z,1008.1
2018-11-10T01:55:20.052Z,1008.08
2018-11-10T01:56:20.064Z,1008.07
2018-11-10T01:57:20.087Z,1008.08
2018-11-10T01:58:20.100Z,1008.09
2018-11-10T01:59:20.116Z,1008.07
2018-11-10T02:00:20.139Z,1008.07
2018-11-10T02:01:20.152Z,1008.05
2018-11-10T02:02:20.173Z,1008.03
2018-11-10T02:03:20.186Z,1008.01
2018-11-10T02:04:20.207Z,1008.07
2018-11-10T02:05:20.225Z,1008.04
2018-11-10T02:06:20.239Z,1008.05
2018-11-10T02:08:20.273Z,1008.01
2018-11-10T02:09:20.295Z,1008.02
2018-11-10T02:10:20.308Z,1008.01
2018-11-10T02:11:20.329Z,1007.96
2018-11-10T02:12:20.343Z,1007.96
2018-11-10T02:13:20.364Z,1007.95
2018-11-10T02:14:20.377Z,1007.97
2018-11-10T02:15:20.400Z,1007.98
2018-11-10T02:16:20.415Z,1007.96
2018-11-10T02:17:20.434Z,1007.95
2018-11-10T02:18:20.496Z,1007.93
2018-11-10T02:19:20.468Z,1007.92
2018-11-10T02:20:20.486Z,1007.9
2018-11-10T02:21:20.500Z,1007.87
2018-11-10T02:23:20.534Z,1007.85
2018-11-10T02:24:20.550Z,1007.84
2018-11-10T02:25:20.573Z,1007.85
2018-11-10T02:26:20.590Z,1007.84
2018-11-10T02:27:20.608Z,1007.82
2018-11-10T02:28:20.620Z,1007.81
2018-11-10T02:29:20.642Z,1007.84
2018-11-10T02:30:20.655Z,1007.84
2018-11-10T02:31:20.676Z,1007.86
2018-11-10T02:32:20.690Z,1007.81
2018-11-10T02:33:20.712Z,1007.84
2018-11-10T02:34:20.730Z,1007.81
2018-11-10T02:35:20.748Z,1007.86
2018-11-10T02:36:20.760Z,1007.85
2018-11-10T02:37:20.781Z,1007.87
2018-11-10T02:38:20.795Z,1007.79
2018-11-10T02:39:20.816Z,1007.85
2018-11-10T02:40:20.831Z,1007.83
2018-11-10T02:41:20.851Z,1007.86
2018-11-10T02:42:20.862Z,1007.84
2018-11-10T02:43:20.884Z,1007.84
2018-11-10T02:44:20.898Z,1007.81
2018-11-10T02:45:20.921Z,1007.78
2018-11-10T02:46:20.932Z,1007.75
2018-11-10T02:47:20.949Z,1007.75
2018-11-10T02:48:20.967Z,1007.78
2018-11-10T02:49:20.989Z,1007.78
2018-11-10T02:50:21.006Z,1007.77
2018-11-10T02:51:21.020Z,1007.77
2018-11-10T02:52:21.041Z,1007.74
2018-11-10T02:53:21.054Z,1007.76
2018-11-10T02:55:21.088Z,1007.79
2018-11-10T02:56:21.113Z,1007.76
2018-11-10T02:57:21.129Z,1007.78
2018-11-10T02:58:21.141Z,1007.78
2018-11-10T02:59:21.158Z,1007.75
2018-11-10T03:00:21.176Z,1007.76
2018-11-10T03:01:21.196Z,1007.75
2018-11-10T03:02:21.209Z,1007.75
2018-11-10T03:03:21.232Z,1007.75
2018-11-10T03:04:21.248Z,1007.75
2018-11-10T03:05:21.261Z,1007.72
2018-11-10T03:06:21.284Z,1007.72
2018-11-10T03:07:21.303Z,1007.68
2018-11-10T03:08:21.313Z,1007.69
2018-11-10T03:09:21.331Z,1007.66
2018-11-10T03:11:21.374Z,1007.64
2018-11-10T03:12:21.383Z,1007.65
2018-11-10T03:13:21.405Z,1007.64
2018-11-10T03:14:21.418Z,1007.65
2018-11-10T03:15:21.439Z,1007.68
2018-11-10T03:16:21.546Z,1007.62
2018-11-10T03:17:21.474Z,1007.63
2018-11-10T03:18:21.487Z,1007.65
2018-11-10T03:19:21.508Z,1007.61
2018-11-10T03:20:21.524Z,1007.64
2018-11-10T03:21:21.557Z,1007.64
2018-11-10T03:22:21.557Z,1007.64
2018-11-10T03:23:21.576Z,1007.64
2018-11-10T03:24:21.591Z,1007.7
2018-11-10T03:25:21.613Z,1007.68
2018-11-10T03:27:21.642Z,1007.6
2018-11-10T03:28:21.664Z,1007.61
2018-11-10T03:29:21.682Z,1007.63
2018-11-10T03:30:21.695Z,1007.58
2018-11-10T03:31:21.716Z,1007.59
2018-11-10T03:32:21.730Z,1007.6
2018-11-10T03:33:21.751Z,1007.56
2018-11-10T03:34:21.763Z,1007.6
2018-11-10T03:35:21.785Z,1007.56
2018-11-10T03:36:21.798Z,1007.62
2018-11-10T03:37:21.815Z,1007.56
2018-11-10T03:38:21.837Z,1007.58
2018-11-10T03:39:21.850Z,1007.6
2018-11-10T03:40:21.872Z,1007.57
2018-11-10T03:41:21.885Z,1007.56
2018-11-10T03:43:21.920Z,1007.59
2018-11-10T03:44:21.935Z,1007.6
2018-11-10T03:45:21.958Z,1007.6
2018-11-10T03:46:21.972Z,1007.58
2018-11-10T03:47:21.993Z,1007.57
2018-11-10T03:48:22.005Z,1007.57
2018-11-10T03:49:22.031Z,1007.56
2018-11-10T03:50:22.042Z,1007.59
2018-11-10T03:51:22.059Z,1007.54
2018-11-10T03:52:22.079Z,1007.55
2018-11-10T03:53:22.097Z,1007.53
2018-11-10T03:54:22.114Z,1007.52
2018-11-10T03:55:22.131Z,1007.51
2018-11-10T03:56:22.146Z,1007.51
2018-11-10T03:58:22.181Z,1007.48
2018-11-10T03:59:22.196Z,1007.47
2018-11-10T04:00:22.220Z,1007.46
2018-11-10T04:01:22.232Z,1007.49
2018-11-10T04:02:22.249Z,1007.46
2018-11-10T04:03:22.270Z,1007.47
2018-11-10T04:04:22.288Z,1007.44
2018-11-10T04:05:22.306Z,1007.47
2018-11-10T04:06:22.324Z,1007.46
2018-11-10T04:07:22.344Z,1007.44
2018-11-10T04:08:22.355Z,1007.44
2018-11-10T04:09:22.374Z,1007.44
2018-11-10T04:10:22.388Z,1007.41
2018-11-10T04:11:22.410Z,1007.43
2018-11-10T04:12:22.427Z,1007.44
2018-11-10T04:13:22.438Z,1007.46
2018-11-10T04:14:22.460Z,1007.4
2018-11-10T04:15:22.474Z,1007.44
2018-11-10T04:16:22.496Z,1007.41
2018-11-10T04:17:22.506Z,1007.42
2018-11-10T04:18:22.530Z,1007.37
2018-11-10T04:19:22.542Z,1007.38
2018-11-10T04:20:22.564Z,1007.39
2018-11-10T04:21:22.577Z,1007.37
2018-11-10T04:22:22.595Z,1007.37
2018-11-10T04:23:22.612Z,1007.36
2018-11-10T04:24:22.633Z,1007.37
2018-11-10T04:25:22.647Z,1007.31
2018-11-10T04:26:22.667Z,1007.32
2018-11-10T04:27:22.681Z,1007.35
2018-11-10T04:28:22.701Z,1007.31
2018-11-10T04:30:22.732Z,1007.29
2018-11-10T04:31:22.749Z,1007.28
2018-11-10T04:32:22.766Z,1007.27
2018-11-10T04:33:22.839Z,1007.26
2018-11-10T04:34:22.801Z,1007.26
2018-11-10T04:35:22.823Z,1007.23
2018-11-10T04:36:22.839Z,1007.23
2018-11-10T04:37:22.857Z,1007.18
2018-11-10T04:38:22.871Z,1007.2
2018-11-10T04:39:22.886Z,1007.17
2018-11-10T04:40:22.909Z,1007.17
2018-11-10T04:41:22.922Z,1007.15
2018-11-10T04:42:22.943Z,1007.15
2018-11-10T04:43:22.961Z,1007.12
2018-11-10T04:44:22.974Z,1007.09
2018-11-10T04:46:23.009Z,1007.09
2018-11-10T04:47:23.029Z,1007.12
2018-11-10T04:48:23.041Z,1007.11
2018-11-10T04:49:23.064Z,1007.1
2018-11-10T04:50:23.085Z,1007.09
2018-11-10T04:51:23.095Z,1007.09
2018-11-10T04:52:23.112Z,1007.07
2018-11-10T04:53:23.134Z,1007.08
2018-11-10T04:54:23.150Z,1006.98
2018-11-10T04:55:23.169Z,1007.03
2018-11-10T04:56:23.181Z,1007.01
2018-11-10T04:57:23.198Z,1006.98
2018-11-10T04:58:23.215Z,1006.99
2018-11-10T04:59:23.236Z,1006.98
2018-11-10T05:00:23.255Z,1006.93
2018-11-10T05:02:23.291Z,1006.97
2018-11-10T05:03:23.302Z,1006.9
2018-11-10T05:04:23.319Z,1006.95
2018-11-10T05:05:23.335Z,1006.98
2018-11-10T05:06:23.358Z,1006.96
2018-11-10T05:07:23.375Z,1006.94
2018-11-10T05:08:23.388Z,1006.89
2018-11-10T05:09:23.409Z,1006.9
2018-11-10T05:10:23.425Z,1006.96
2018-11-10T05:11:23.444Z,1006.92
2018-11-10T05:12:23.456Z,1006.95
2018-11-10T05:13:23.481Z,1006.99
2018-11-10T05:14:23.495Z,1006.91
2018-11-10T05:15:23.513Z,1006.94
2018-11-10T05:16:23.525Z,1006.97
2018-11-10T05:18:23.564Z,1006.95
2018-11-10T05:19:23.577Z,1006.91
2018-11-10T05:20:23.599Z,1006.89
2018-11-10T05:21:23.616Z,1006.9
2018-11-10T05:22:23.629Z,1006.88
2018-11-10T05:23:23.652Z,1006.86
2018-11-10T05:24:23.668Z,1006.88
2018-11-10T05:25:23.682Z,1006.91
2018-11-10T05:26:23.702Z,1006.88
2018-11-10T05:27:23.715Z,1006.96
2018-11-10T05:28:23.737Z,1006.92
2018-11-10T05:29:23.750Z,1006.93
2018-11-10T05:30:23.771Z,1006.88
2018-11-10T05:31:23.790Z,1006.9
2018-11-10T05:33:23.825Z,1006.93
2018-11-10T05:34:23.838Z,1006.9
2018-11-10T05:35:23.855Z,1006.94
2018-11-10T05:36:23.872Z,1006.9
2018-11-10T05:37:23.894Z,1006.93
2018-11-10T05:38:23.910Z,1006.92
2018-11-10T05:39:23.927Z,1006.93
2018-11-10T05:40:23.945Z,1006.89
2018-11-10T05:41:23.957Z,1006.9
2018-11-10T05:42:23.974Z,1006.91
2018-11-10T05:43:23.997Z,1006.9
2018-11-10T05:44:24.010Z,1006.95
2018-11-10T05:45:24.031Z,1006.94
2018-11-10T05:46:24.048Z,1006.95
2018-11-10T05:47:24.060Z,1006.94
2018-11-10T05:48:24.080Z,1006.95
2018-11-10T05:49:24.100Z,1006.95
2018-11-10T05:50:24.113Z,1006.97
2018-11-10T05:51:24.136Z,1007.02
2018-11-10T05:52:24.147Z,1007.05
2018-11-10T05:53:24.169Z,1007.07
2018-11-10T05:54:24.183Z,1007.11
2018-11-10T05:55:24.204Z,1007.11
2018-11-10T05:56:24.221Z,1007.14
2018-11-10T05:57:24.238Z,1007.12
2018-11-10T05:58:24.252Z,1007.11
2018-11-10T05:59:24.269Z,1007.09
2018-11-10T06:00:24.290Z,1007.05
2018-11-10T06:01:24.304Z,1006.97
2018-11-10T06:02:24.327Z,1006.97
2018-11-10T06:03:24.338Z,1006.95
2018-11-10T06:05:24.373Z,1006.97
2018-11-10T06:06:24.391Z,1006.98
2018-11-10T06:07:24.412Z,1006.98
2018-11-10T06:08:24.423Z,1007.01
2018-11-10T06:09:24.549Z,1007.02
2018-11-10T06:10:24.619Z,1007.06
2018-11-10T06:11:24.481Z,1007.08
2018-11-10T06:12:24.494Z,1007.08
2018-11-10T06:13:24.512Z,1007.03
2018-11-10T06:14:24.532Z,1007.05
2018-11-10T06:15:24.596Z,1007.09
2018-11-10T06:16:24.563Z,1007.08
2018-11-10T06:17:24.590Z,1007.09
2018-11-10T06:18:24.598Z,1007.02
2018-11-10T06:19:24.619Z,1007.03
2018-11-10T06:21:24.650Z,1007.01
2018-11-10T06:22:24.670Z,1007
2018-11-10T06:23:24.684Z,1006.98
2018-11-10T06:24:24.706Z,1006.97
2018-11-10T06:25:24.717Z,1006.97
2018-11-10T06:26:24.742Z,1006.97
2018-11-10T06:27:24.763Z,1006.97
2018-11-10T06:28:24.770Z,1006.98
2018-11-10T06:29:24.796Z,1007.02
2018-11-10T06:30:24.804Z,1007.07
2018-11-10T06:31:24.827Z,1007.06
2018-11-10T06:32:24.897Z,1007.12
2018-11-10T06:33:24.861Z,1007.09
2018-11-10T06:34:24.878Z,1007.1
2018-11-10T06:35:24.897Z,1007.09
2018-11-10T06:37:24.927Z,1007.09
2018-11-10T06:38:24.947Z,1007.09
2018-11-10T06:39:24.962Z,1007.06
2018-11-10T06:40:24.982Z,1007.08
2018-11-10T06:41:25.068Z,1007.04
2018-11-10T06:42:25.018Z,1007.01
2018-11-10T06:43:25.040Z,1006.96
2018-11-10T06:44:25.052Z,1006.93
2018-11-10T06:45:25.068Z,1006.89
2018-11-10T06:46:25.082Z,1006.89
2018-11-10T06:47:25.100Z,1006.87
2018-11-10T06:48:25.121Z,1006.88
2018-11-10T06:49:25.138Z,1006.86
2018-11-10T06:50:25.157Z,1006.84
2018-11-10T06:51:25.173Z,1006.82
2018-11-10T06:53:25.208Z,1006.74
2018-11-10T06:54:25.221Z,1006.74
2018-11-10T06:55:25.243Z,1006.74
2018-11-10T06:56:25.256Z,1006.74
2018-11-10T06:57:25.279Z,1006.75
2018-11-10T06:58:25.291Z,1006.77
2018-11-10T06:59:25.316Z,1006.73
2018-11-10T07:00:25.330Z,1006.76
2018-11-10T07:01:25.349Z,1006.8
2018-11-10T07:02:25.361Z,1006.83
2018-11-10T07:03:25.429Z,1006.85
2018-11-10T07:04:25.396Z,1006.82
2018-11-10T07:05:25.414Z,1006.84
2018-11-10T07:06:25.434Z,1006.84
2018-11-10T07:08:25.471Z,1006.84
2018-11-10T07:09:25.529Z,1006.85
2018-11-10T07:10:25.505Z,1006.92
2018-11-10T07:11:25.519Z,1006.91
2018-11-10T07:12:25.541Z,1006.9
2018-11-10T07:13:25.552Z,1006.88
2018-11-10T07:14:25.570Z,1006.86
2018-11-10T07:15:25.589Z,1006.85
2018-11-10T07:16:25.610Z,1006.85
2018-11-10T07:17:25.691Z,1006.88
2018-11-10T07:18:25.646Z,1006.87
2018-11-10T07:19:25.663Z,1006.92
2018-11-10T07:20:25.679Z,1006.86
2018-11-10T07:21:25.694Z,1006.9
2018-11-10T07:22:25.710Z,1006.9
2018-11-10T07:23:25.733Z,1006.87
2018-11-10T07:24:25.746Z,1006.85
2018-11-10T07:25:25.768Z,1006.82
2018-11-10T07:26:25.782Z,1006.88
2018-11-10T07:27:25.803Z,1006.84
2018-11-10T07:28:25.817Z,1006.9
2018-11-10T07:29:25.839Z,1006.9
2018-11-10T07:30:25.853Z,1006.87
2018-11-10T07:31:25.873Z,1006.89
2018-11-10T07:32:25.891Z,1006.98
2018-11-10T07:33:25.905Z,1006.94
2018-11-10T07:34:25.924Z,1006.93
2018-11-10T07:35:25.939Z,1006.94
2018-11-10T07:36:25.962Z,1006.92
2018-11-10T07:37:26.013Z,1006.96
2018-11-10T07:38:25.992Z,1006.98
2018-11-10T07:40:26.029Z,1006.97
2018-11-10T07:41:26.050Z,1006.95
2018-11-10T07:42:26.073Z,1006.97
2018-11-10T07:43:26.081Z,1006.95
2018-11-10T07:44:26.097Z,1006.92
2018-11-10T07:45:26.117Z,1006.93
2018-11-10T07:46:26.137Z,1006.85
2018-11-10T07:47:26.152Z,1006.9
2018-11-10T07:48:26.175Z,1006.87
2018-11-10T07:49:26.228Z,1006.88
2018-11-10T07:50:26.308Z,1006.88
2018-11-10T07:51:26.356Z,1006.95
2018-11-10T07:52:26.244Z,1006.91
2018-11-10T07:53:26.256Z,1006.88
2018-11-10T07:54:26.322Z,1006.9
2018-11-10T07:56:26.311Z,1006.9
2018-11-10T07:57:26.327Z,1006.87
2018-11-10T07:58:26.347Z,1006.89
2018-11-10T07:59:26.371Z,1006.87
2018-11-10T08:00:26.430Z,1006.91
2018-11-10T08:01:26.403Z,1006.92
2018-11-10T08:02:26.421Z,1006.92
2018-11-10T08:03:26.442Z,1006.88
2018-11-10T08:04:26.462Z,1006.92
2018-11-10T08:05:26.475Z,1006.88
2018-11-10T08:06:26.489Z,1006.89
2018-11-10T08:07:26.507Z,1006.87
2018-11-10T08:08:26.523Z,1006.91
2018-11-10T08:09:26.546Z,1006.95
2018-11-10T08:10:26.559Z,1006.9
2018-11-10T08:12:26.599Z,1006.96
2018-11-10T08:13:26.613Z,1006.95
2018-11-10T08:14:26.640Z,1006.92
2018-11-10T08:15:26.649Z,1006.93
2018-11-10T08:16:26.680Z,1006.89
2018-11-10T08:17:26.685Z,1006.93
2018-11-10T08:18:26.748Z,1006.9
2018-11-10T08:19:26.723Z,1006.93
2018-11-10T08:20:26.742Z,1006.93
2018-11-10T08:21:26.756Z,1006.94
2018-11-10T08:22:26.823Z,1006.91
2018-11-10T08:23:26.795Z,1006.9
2018-11-10T08:24:26.809Z,1006.89
2018-11-10T08:25:26.832Z,1006.86
2018-11-10T08:26:26.849Z,1006.87
2018-11-10T08:28:26.880Z,1006.81
2018-11-10T08:29:26.899Z,1006.86
2018-11-10T08:30:26.924Z,1006.83
2018-11-10T08:31:27.035Z,1006.84
2018-11-10T08:32:26.953Z,1006.87
2018-11-10T08:33:26.975Z,1006.9
2018-11-10T08:34:26.988Z,1006.91
2018-11-10T08:35:27.013Z,1006.87
2018-11-10T08:36:27.028Z,1006.85
2018-11-10T08:37:27.047Z,1006.82
2018-11-10T08:38:27.061Z,1006.84
2018-11-10T08:39:27.080Z,1006.81
2018-11-10T08:40:27.102Z,1006.82
2018-11-10T08:41:27.116Z,1006.78
2018-11-10T08:43:27.157Z,1006.84
2018-11-10T08:44:27.174Z,1006.84
2018-11-10T08:45:27.189Z,1006.89
2018-11-10T08:46:27.213Z,1006.9
2018-11-10T08:47:27.226Z,1006.9
2018-11-10T08:48:27.247Z,1006.91
2018-11-10T08:49:27.263Z,1006.89
2018-11-10T08:50:27.280Z,1006.91
2018-11-10T08:51:27.304Z,1006.87
2018-11-10T08:52:27.320Z,1006.84
2018-11-10T08:53:27.338Z,1006.87
2018-11-10T08:54:27.356Z,1006.82
2018-11-10T08:55:27.375Z,1006.81
2018-11-10T08:56:27.389Z,1006.8
2018-11-10T08:57:27.423Z,1006.8
2018-11-10T08:58:27.424Z,1006.8
2018-11-10T08:59:27.448Z,1006.81
2018-11-10T09:00:27.462Z,1006.85
2018-11-10T09:01:27.485Z,1006.79
2018-11-10T09:02:27.502Z,1006.85
2018-11-10T09:03:27.520Z,1006.79
2018-11-10T09:04:27.535Z,1006.8
2018-11-10T09:05:27.558Z,1006.78
2018-11-10T09:06:27.672Z,1006.77
2018-11-10T09:07:27.600Z,1006.79
2018-11-10T09:08:27.608Z,1006.77
2018-11-10T09:09:27.634Z,1006.72
2018-11-10T09:10:27.644Z,1006.77
2018-11-10T09:11:27.668Z,1006.7
2018-11-10T09:12:27.682Z,1006.75
2018-11-10T09:13:27.700Z,1006.75
2018-11-10T09:15:27.741Z,1006.8
2018-11-10T09:16:27.760Z,1006.75
2018-11-10T09:17:27.774Z,1006.75
2018-11-10T09:18:27.797Z,1006.79
2018-11-10T09:19:27.811Z,1006.75
2018-11-10T09:20:27.831Z,1006.68
2018-11-10T09:21:27.891Z,1006.71
2018-11-10T09:22:27.922Z,1006.7
2018-11-10T09:23:27.890Z,1006.72
2018-11-10T09:24:27.904Z,1006.77
2018-11-10T09:25:27.923Z,1006.76
2018-11-10T09:26:27.946Z,1006.79
2018-11-10T09:27:27.961Z,1006.82
2018-11-10T09:28:27.983Z,1006.78
2018-11-10T09:29:27.998Z,1006.83
2018-11-10T09:31:28.036Z,1006.85
2018-11-10T09:32:28.059Z,1006.93
2018-11-10T09:33:28.076Z,1006.83
2018-11-10T09:34:28.094Z,1006.8
2018-11-10T09:35:28.109Z,1006.8
2018-11-10T09:36:28.140Z,1006.84
2018-11-10T09:37:28.151Z,1006.76
2018-11-10T09:38:28.167Z,1006.8
2018-11-10T09:39:28.189Z,1006.74
2018-11-10T09:40:28.222Z,1006.77
2018-11-10T09:41:28.226Z,1006.76
2018-11-10T09:42:28.333Z,1006.7
2018-11-10T09:43:28.259Z,1006.75
2018-11-10T09:44:28.278Z,1006.71
2018-11-10T09:45:28.301Z,1006.74
2018-11-10T09:47:28.333Z,1006.71
2018-11-10T09:48:28.359Z,1006.7
2018-11-10T09:49:28.372Z,1006.68
2018-11-10T09:50:28.395Z,1006.69
2018-11-10T09:51:28.409Z,1006.64
2018-11-10T09:52:28.440Z,1006.66
2018-11-10T09:53:28.447Z,1006.66
2018-11-10T09:54:28.467Z,1006.6
2018-11-10T09:55:28.488Z,1006.66
2018-11-10T09:56:28.507Z,1006.63
2018-11-10T09:57:28.520Z,1006.7
2018-11-10T09:58:28.545Z,1006.71
2018-11-10T09:59:28.560Z,1006.69
2018-11-10T10:00:28.587Z,1006.71
2018-11-10T10:01:28.729Z,1006.73
2018-11-10T10:03:28.642Z,1006.73
2018-11-10T10:04:28.654Z,1006.72
2018-11-10T10:05:28.677Z,1006.71
2018-11-10T10:06:28.692Z,1006.74
2018-11-10T10:07:28.715Z,1006.69
2018-11-10T10:08:28.728Z,1006.71
2018-11-10T10:09:28.753Z,1006.65
2018-11-10T10:10:28.772Z,1006.68
2018-11-10T10:11:28.793Z,1006.61
2018-11-10T10:12:28.806Z,1006.57
2018-11-10T10:13:28.825Z,1006.57
2018-11-10T10:14:28.852Z,1006.55
2018-11-10T10:15:28.868Z,1006.56
2018-11-10T10:16:29.068Z,1006.56
2018-11-10T10:18:28.926Z,1006.54
2018-11-10T10:19:28.941Z,1006.53
2018-11-10T10:20:28.963Z,1006.55
2018-11-10T10:21:28.983Z,1006.54
2018-11-10T10:22:28.997Z,1006.54
2018-11-10T10:23:29.016Z,1006.5
2018-11-10T10:24:29.040Z,1006.54
2018-11-10T10:25:29.055Z,1006.54
2018-11-10T10:26:29.078Z,1006.5
2018-11-10T10:27:29.093Z,1006.53
2018-11-10T10:28:29.248Z,1006.49
2018-11-10T10:29:29.133Z,1006.45
2018-11-10T10:30:29.151Z,1006.48
2018-11-10T10:31:29.173Z,1006.44
2018-11-10T10:32:29.195Z,1006.42
2018-11-10T10:33:29.208Z,1006.36
2018-11-10T10:34:29.344Z,1006.39
2018-11-10T10:35:29.495Z,1006.36
2018-11-10T10:36:29.272Z,1006.37
2018-11-10T10:37:29.287Z,1006.28
2018-11-10T10:38:29.411Z,1006.24
2018-11-10T10:39:29.326Z,1006.22
2018-11-10T10:40:29.350Z,1006.24
2018-11-10T10:41:29.365Z,1006.22
2018-11-10T10:42:29.388Z,1006.2
2018-11-10T10:43:29.405Z,1006.15
2018-11-10T10:44:29.428Z,1006.18
2018-11-10T10:45:29.443Z,1006.15
2018-11-10T10:46:29.466Z,1006.15
2018-11-10T10:47:29.486Z,1006.13
2018-11-10T10:48:29.594Z,1006.1
2018-11-10T10:50:29.544Z,1006.08
2018-11-10T10:51:29.559Z,1006.08
2018-11-10T10:52:29.583Z,1006.07
2018-11-10T10:53:29.603Z,1006.08
2018-11-10T10:54:29.617Z,1006.11
2018-11-10T10:55:29.646Z,1006.08
2018-11-10T10:56:29.711Z,1006.06
2018-11-10T10:57:29.675Z,1005.99
2018-11-10T10:58:29.696Z,1006
2018-11-10T10:59:29.718Z,1005.93
2018-11-10T11:00:29.740Z,1005.94
2018-11-10T11:01:29.754Z,1005.95
2018-11-10T11:02:29.782Z,1005.9
2018-11-10T11:03:29.894Z,1005.93
2018-11-10T11:04:29.816Z,1005.99
2018-11-10T11:06:29.855Z,1006.07
2018-11-10T11:07:29.874Z,1006.09
2018-11-10T11:08:29.889Z,1006.16
2018-11-10T11:09:29.999Z,1006.16
2018-11-10T11:10:29.928Z,1006.27
2018-11-10T11:11:29.951Z,1006.24
2018-11-10T11:12:29.966Z,1006.27
2018-11-10T11:13:29.988Z,1006.29
2018-11-10T11:14:30.010Z,1006.32
2018-11-10T11:15:30.147Z,1006.27
2018-11-10T11:16:30.050Z,1006.3
2018-11-10T11:17:30.068Z,1006.3
2018-11-10T11:18:30.082Z,1006.29
2018-11-10T11:19:30.103Z,1006.27
2018-11-10T11:20:30.123Z,1006.29
2018-11-10T11:22:30.160Z,1006.35
2018-11-10T11:23:30.185Z,1006.33
2018-11-10T11:24:30.206Z,1006.31
2018-11-10T11:25:30.219Z,1006.35
2018-11-10T11:26:30.240Z,1006.3
2018-11-10T11:27:30.258Z,1006.29
2018-11-10T11:28:30.282Z,1006.28
2018-11-10T11:29:30.300Z,1006.26
2018-11-10T11:30:30.321Z,1006.24
2018-11-10T11:31:30.341Z,1006.28
2018-11-10T11:32:30.359Z,1006.28
2018-11-10T11:33:30.375Z,1006.28
2018-11-10T11:34:30.395Z,1006.24
2018-11-10T11:35:30.467Z,1006.25
2018-11-10T11:36:30.434Z,1006.2
2018-11-10T11:38:30.482Z,1006.19
2018-11-10T11:39:30.499Z,1006.13
2018-11-10T11:40:30.512Z,1006.17
2018-11-10T11:41:30.639Z,1006.11
2018-11-10T11:42:30.553Z,1006.11
2018-11-10T11:43:30.576Z,1006.07
2018-11-10T11:44:30.593Z,1006.03
2018-11-10T11:45:30.617Z,1006.02
2018-11-10T11:46:30.632Z,1006.01
2018-11-10T11:47:30.655Z,1006.02
2018-11-10T11:48:30.674Z,1006.02
2018-11-10T11:49:30.695Z,1006.05
2018-11-10T11:50:30.712Z,1006.05
2018-11-10T11:51:30.734Z,1006.05
2018-11-10T11:53:30.770Z,1005.98
2018-11-10T11:54:30.793Z,1005.98
2018-11-10T11:55:30.811Z,1005.98
2018-11-10T11:56:30.835Z,1005.95
2018-11-10T11:57:30.900Z,1005.96
2018-11-10T11:58:30.880Z,1005.97
2018-11-10T11:59:30.893Z,1005.97
2018-11-10T12:00:30.913Z,1005.88
2018-11-10T12:01:30.936Z,1005.87
2018-11-10T12:02:30.947Z,1005.87
2018-11-10T12:03:30.973Z,1005.87
2018-11-10T12:04:31.066Z,1005.79
2018-11-10T12:05:31.013Z,1005.76
2018-11-10T12:06:31.034Z,1005.74
2018-11-10T12:07:31.058Z,1005.72
2018-11-10T12:08:31.068Z,1005.72
2018-11-10T12:09:31.087Z,1005.75
2018-11-10T12:10:31.111Z,1005.78
2018-11-10T12:11:31.131Z,1005.81
2018-11-10T12:12:31.146Z,1005.82
2018-11-10T12:13:31.171Z,1005.86
2018-11-10T12:14:31.188Z,1005.84
2018-11-10T12:15:31.337Z,1005.78
2018-11-10T12:16:31.258Z,1005.77
2018-11-10T12:17:31.251Z,1005.75
2018-11-10T12:18:31.267Z,1005.7
2018-11-10T12:19:31.292Z,1005.73
2018-11-10T12:20:31.307Z,1005.74
2018-11-10T12:21:31.329Z,1005.78
2018-11-10T12:22:31.350Z,1005.73
2018-11-10T12:23:31.365Z,1005.71
2018-11-10T12:25:31.408Z,1005.7
2018-11-10T12:26:31.441Z,1005.73
2018-11-10T12:27:31.450Z,1005.74
2018-11-10T12:28:31.516Z,1005.67
2018-11-10T12:29:31.492Z,1005.63
2018-11-10T12:30:31.508Z,1005.66
2018-11-10T12:31:31.597Z,1005.64
2018-11-10T12:32:31.547Z,1005.66
2018-11-10T12:33:31.572Z,1005.67
2018-11-10T12:34:31.586Z,1005.63
2018-11-10T12:35:31.611Z,1005.62
2018-11-10T12:36:31.628Z,1005.61
2018-11-10T12:37:31.652Z,1005.5
2018-11-10T12:38:31.673Z,1005.5
2018-11-10T12:39:31.694Z,1005.49
2018-11-10T12:41:31.733Z,1005.59
2018-11-10T12:42:31.757Z,1005.66
2018-11-10T12:43:31.767Z,1005.68
2018-11-10T12:44:31.786Z,1005.71
2018-11-10T12:45:31.809Z,1005.76
2018-11-10T12:46:31.832Z,1005.78
2018-11-10T12:47:31.858Z,1005.8
2018-11-10T12:48:31.874Z,1005.79
2018-11-10T12:49:31.888Z,1005.76